createdAt,value
2019-05-22T00:33:27.980Z,51.55
2019-05-22T00:35:56.710Z,47.98
2019-05-22T00:38:25.301Z,49.67
2019-05-22T00:40:57.892Z,47.00
2019-05-22T00:43:33.909Z,46.98
2019-05-22T00:46:05.330Z,47.48
2019-05-22T00:48:35.408Z,46.37
2019-05-22T00:51:05.315Z,45.08
2019-05-22T00:53:49.854Z,40.52
2019-05-22T00:56:34.756Z,41.05
2019-05-22T01:01:33.913Z,38.42
2019-05-22T01:04:03.834Z,42.13
2019-05-22T01:06:33.121Z,39.00
2019-05-22T01:09:03.010Z,38.67
2019-05-22T01:11:32.648Z,39.53
2019-05-22T01:14:02.529Z,32.88
2019-05-22T01:16:31.338Z,33.80
2019-05-22T01:19:00.389Z,33.08
2019-05-22T01:21:30.293Z,29.98
2019-05-22T01:23:59.113Z,30.97
2019-05-22T01:26:29.052Z,30.82
2019-05-22T01:28:57.301Z,26.23
2019-05-22T01:31:29.635Z,28.90
2019-05-22T01:34:02.336Z,26.15
2019-05-22T01:36:32.993Z,25.37
2019-05-22T01:39:06.138Z,25.95
2019-05-22T01:41:36.043Z,24.57
2019-05-22T01:44:05.933Z,22.48
2019-05-22T01:46:34.261Z,20.68
2019-05-22T01:49:04.386Z,18.25
2019-05-22T01:51:34.287Z,17.92
2019-05-22T01:54:02.611Z,16.60
2019-05-22T01:56:30.870Z,18.23
2019-05-22T01:58:59.298Z,16.70
2019-05-22T02:01:27.558Z,16.05
2019-05-22T02:03:59.914Z,17.45
2019-05-22T02:06:28.196Z,14.73
2019-05-22T02:09:06.429Z,13.50
2019-05-22T02:11:35.756Z,15.45
2019-05-22T02:14:10.208Z,20.32
2019-05-22T02:16:55.618Z,14.30
2019-05-22T02:19:11.982Z,15.18
2019-05-22T02:21:40.710Z,16.05
2019-05-22T02:24:09.999Z,16.17
2019-05-22T02:26:39.905Z,14.55
2019-05-22T02:29:10.734Z,16.00
2019-05-22T02:31:40.628Z,12.10
2019-05-22T02:34:09.322Z,13.20
2019-05-22T02:36:38.886Z,11.73
2019-05-22T02:39:11.606Z,11.95
2019-05-22T02:41:46.015Z,11.25
2019-05-22T02:44:15.070Z,13.25
2019-05-22T02:46:43.794Z,13.58
2019-05-22T02:49:13.678Z,11.78
2019-05-22T02:51:42.674Z,17.12
2019-05-22T02:54:11.005Z,11.53
2019-05-22T02:56:39.797Z,13.65
2019-05-22T02:59:08.749Z,14.75
2019-05-22T03:01:37.778Z,15.68
2019-05-22T03:04:07.661Z,14.13
2019-05-22T03:06:36.018Z,16.20
2019-05-22T03:09:17.033Z,16.82
2019-05-22T03:11:49.118Z,19.67
2019-05-22T03:14:17.373Z,16.67
2019-05-22T03:16:58.133Z,16.52
2019-05-22T03:19:36.665Z,14.75
2019-05-22T03:22:17.043Z,15.48
2019-05-22T03:24:46.257Z,14.20
2019-05-22T03:27:14.991Z,18.23
2019-05-22T03:29:56.029Z,14.38
2019-05-22T03:32:24.743Z,16.70
2019-05-22T03:34:53.964Z,18.73
2019-05-22T03:37:22.602Z,31.55
2019-05-22T03:39:51.323Z,29.45
2019-05-22T03:42:20.948Z,30.08
2019-05-22T03:44:51.141Z,27.58
2019-05-22T03:47:19.425Z,30.90
2019-05-22T03:49:47.846Z,29.25
2019-05-22T03:52:16.584Z,25.45
2019-05-22T03:54:45.308Z,27.13
2019-05-22T03:57:15.194Z,25.50
2019-05-22T03:59:43.530Z,32.90
2019-05-22T04:02:12.249Z,35.68
2019-05-22T04:04:41.250Z,33.85
2019-05-22T04:07:12.782Z,41.45
2019-05-22T04:09:42.979Z,38.63
2019-05-22T04:12:11.486Z,43.42
2019-05-22T04:14:40.330Z,46.70
2019-05-22T04:17:10.455Z,47.03
2019-05-22T04:19:49.270Z,47.25
2019-05-22T04:22:11.835Z,44.38
2019-05-22T04:24:41.585Z,42.73
2019-05-22T04:27:11.108Z,45.23
2019-05-22T04:29:39.372Z,44.58
2019-05-22T04:32:12.155Z,46.40
2019-05-22T04:34:40.451Z,45.92
2019-05-22T04:37:10.751Z,41.05
2019-05-22T04:39:40.664Z,41.35
2019-05-22T04:42:10.564Z,41.63
2019-05-22T04:44:44.618Z,47.13
2019-05-22T04:47:12.876Z,42.23
2019-05-22T04:49:42.114Z,43.75
2019-05-22T04:52:10.366Z,44.70
2019-05-22T04:54:38.626Z,44.05
2019-05-22T04:57:07.877Z,43.80
2019-05-22T04:59:36.565Z,45.05
2019-05-22T05:02:05.269Z,49.77
2019-05-22T05:04:33.590Z,49.05
2019-05-22T05:07:02.904Z,50.55
2019-05-22T05:09:31.633Z,45.58
2019-05-22T05:11:59.894Z,48.40
2019-05-22T05:14:28.153Z,50.45
2019-05-22T05:16:56.408Z,51.33
2019-05-22T05:19:24.665Z,43.17
2019-05-22T05:21:52.917Z,47.10
2019-05-22T05:24:21.256Z,44.53
2019-05-22T05:26:50.587Z,41.85
2019-05-22T05:29:26.340Z,38.23
2019-05-22T05:31:55.267Z,42.53
2019-05-22T05:34:35.861Z,41.45
2019-05-22T05:37:05.733Z,46.95
2019-05-22T05:39:40.071Z,38.48
2019-05-22T05:42:08.317Z,36.68
2019-05-22T05:44:36.606Z,34.60
2019-05-22T05:47:05.802Z,35.85
2019-05-22T05:49:34.058Z,34.48
2019-05-22T05:52:03.496Z,32.63
2019-05-22T05:54:31.829Z,35.40
2019-05-22T05:57:46.351Z,34.60
2019-05-22T06:00:24.177Z,37.42
2019-05-22T06:02:56.688Z,34.85
2019-05-22T06:05:25.495Z,35.65
2019-05-22T06:07:53.749Z,30.80
2019-05-22T06:10:31.603Z,34.00
2019-05-22T06:13:00.636Z,38.40
2019-05-22T06:15:47.157Z,35.23
2019-05-22T06:18:51.242Z,35.08
2019-05-22T06:21:20.061Z,33.40
2019-05-22T06:24:00.805Z,35.13
2019-05-22T06:26:38.182Z,40.85
2019-05-22T06:29:08.305Z,42.17
2019-05-22T06:31:54.933Z,36.98
2019-05-22T06:34:23.253Z,41.42
2019-05-22T06:36:51.514Z,34.08
2019-05-22T06:39:20.228Z,28.55
2019-05-22T06:41:48.485Z,29.63
2019-05-22T06:44:28.946Z,24.57
2019-05-22T06:46:58.281Z,23.50
2019-05-22T06:49:35.777Z,17.80
2019-05-22T06:52:07.429Z,16.77
2019-05-22T06:54:36.552Z,26.15
2019-05-22T06:57:07.094Z,17.45
2019-05-22T06:59:35.348Z,22.90
2019-05-22T07:02:04.178Z,17.17
2019-05-22T07:04:33.166Z,16.75
2019-05-22T07:07:01.611Z,16.85
2019-05-22T07:09:31.174Z,14.78
2019-05-22T07:11:59.802Z,13.75
2019-05-22T07:14:28.837Z,14.58
2019-05-22T07:16:58.142Z,16.20
2019-05-22T07:19:28.097Z,15.68
2019-05-22T07:21:56.725Z,16.02
2019-05-22T07:24:24.971Z,16.23
2019-05-22T07:26:54.370Z,19.15
2019-05-22T07:29:22.623Z,19.30
2019-05-22T07:31:50.952Z,17.32
2019-05-22T07:34:19.565Z,18.10
2019-05-22T07:36:47.817Z,16.25
2019-05-22T07:39:16.550Z,21.48
2019-05-22T07:41:45.293Z,15.20
2019-05-22T07:44:13.670Z,14.83
2019-05-22T07:46:41.950Z,16.62
2019-05-22T07:49:30.114Z,18.80
2019-05-22T07:52:01.800Z,19.32
2019-05-22T07:54:28.714Z,15.18
2019-05-22T07:56:56.959Z,12.68
2019-05-22T07:59:25.786Z,12.45
2019-05-22T08:01:54.405Z,12.33
2019-05-22T08:04:23.133Z,12.78
2019-05-22T08:06:51.383Z,14.58
2019-05-22T08:09:19.884Z,13.32
2019-05-22T08:11:48.501Z,16.23
2019-05-22T08:14:16.757Z,15.30
2019-05-22T08:16:45.006Z,15.25
2019-05-22T08:19:13.269Z,14.30
2019-05-22T08:21:41.521Z,14.75
2019-05-22T08:24:10.166Z,13.55
2019-05-22T08:26:53.444Z,13.90
2019-05-22T08:29:09.944Z,13.50
2019-05-22T08:31:38.917Z,14.13
2019-05-22T08:34:07.949Z,13.72
2019-05-22T08:36:38.782Z,15.23
2019-05-22T08:39:08.698Z,14.10
2019-05-22T08:41:42.291Z,12.98
2019-05-22T08:44:16.546Z,12.07
2019-05-22T08:46:40.528Z,15.00
2019-05-22T08:49:08.785Z,12.20
2019-05-22T08:51:37.029Z,11.57
2019-05-22T08:54:06.029Z,12.13
2019-05-22T08:56:38.385Z,17.73
2019-05-22T08:59:18.780Z,12.93
2019-05-22T09:01:38.830Z,12.58
2019-05-22T09:04:07.561Z,16.32
2019-05-22T09:06:35.802Z,13.65
2019-05-22T09:09:04.797Z,15.05
2019-05-22T09:11:33.046Z,11.68
2019-05-22T09:14:01.336Z,12.37
2019-05-22T09:16:29.647Z,13.58
2019-05-22T09:18:58.673Z,14.90
2019-05-22T09:21:26.942Z,17.17
2019-05-22T09:23:55.253Z,13.10
2019-05-22T09:26:23.510Z,13.85
2019-05-22T09:28:52.522Z,13.43
2019-05-22T09:31:20.780Z,14.20
2019-05-22T09:33:49.310Z,12.93
2019-05-22T09:36:17.609Z,12.78
2019-05-22T09:38:45.857Z,12.25
2019-05-22T09:41:14.381Z,13.78
2019-05-22T09:43:42.635Z,13.30
2019-05-22T09:46:10.890Z,10.95
2019-05-22T09:48:39.324Z,10.68
2019-05-22T09:51:07.913Z,13.08
2019-05-22T09:53:36.225Z,15.25
2019-05-22T09:56:04.572Z,13.65
2019-05-22T09:58:33.373Z,16.35
2019-05-22T10:01:01.654Z,15.68
2019-05-22T10:03:30.163Z,13.43
2019-05-22T10:05:58.995Z,17.48
2019-05-22T10:08:27.665Z,16.70
2019-05-22T10:10:56.468Z,17.40
2019-05-22T10:13:24.715Z,14.55
2019-05-22T10:15:52.987Z,16.67
2019-05-22T10:18:21.293Z,17.85
2019-05-22T10:20:49.625Z,12.78
2019-05-22T10:23:18.011Z,14.25
2019-05-22T10:25:46.275Z,18.57
2019-05-22T10:28:14.538Z,14.07
2019-05-22T10:30:42.797Z,16.52
2019-05-22T10:33:30.495Z,13.00
2019-05-22T10:35:58.821Z,12.37
2019-05-22T10:38:27.061Z,11.90
2019-05-22T10:40:59.010Z,15.70
2019-05-22T10:43:25.765Z,14.28
2019-05-22T10:45:54.090Z,12.98
2019-05-22T10:48:22.348Z,12.78
2019-05-22T10:50:50.615Z,17.25
2019-05-22T10:53:33.131Z,18.48
2019-05-22T10:55:49.517Z,16.02
2019-05-22T10:58:17.869Z,14.65
2019-05-22T11:00:46.198Z,15.50
2019-05-22T11:03:15.714Z,19.35
2019-05-22T11:05:44.051Z,17.23
2019-05-22T11:08:12.300Z,18.23
2019-05-22T11:10:40.624Z,15.38
2019-05-22T11:13:10.157Z,12.82
2019-05-22T11:15:38.784Z,18.05
2019-05-22T11:18:07.608Z,20.45
2019-05-22T11:20:35.937Z,14.63
2019-05-22T11:23:05.526Z,12.20
2019-05-22T11:25:34.266Z,13.20
2019-05-22T11:28:02.533Z,14.63
2019-05-22T11:30:30.781Z,16.62
2019-05-22T11:32:59.052Z,13.58
2019-05-22T11:35:27.438Z,15.18
2019-05-22T11:37:56.167Z,17.05
2019-05-22T11:40:24.409Z,13.55
2019-05-22T11:42:53.551Z,12.07
2019-05-22T11:45:22.763Z,13.15
2019-05-22T11:47:51.403Z,11.85
2019-05-22T11:50:19.720Z,14.70
2019-05-22T11:52:48.254Z,13.10
2019-05-22T11:55:16.570Z,14.68
2019-05-22T11:57:45.969Z,13.20
2019-05-22T12:00:14.587Z,13.32
2019-05-22T12:02:44.494Z,15.03
2019-05-22T12:05:13.202Z,17.35
2019-05-22T12:07:41.466Z,15.18
2019-05-22T12:10:10.861Z,11.68
2019-05-22T12:12:39.141Z,12.47
2019-05-22T12:15:08.422Z,14.05
2019-05-22T12:17:38.934Z,10.43
2019-05-22T12:20:10.248Z,17.50
2019-05-22T12:22:38.586Z,10.75
2019-05-22T12:25:06.833Z,14.78
2019-05-22T12:27:35.630Z,13.28
2019-05-22T12:30:07.942Z,10.20
2019-05-22T12:32:36.328Z,11.22
2019-05-22T12:35:06.205Z,8.88
2019-05-22T12:37:35.025Z,9.98
2019-05-22T12:40:06.157Z,10.15
2019-05-22T12:42:34.868Z,8.30
2019-05-22T12:45:05.413Z,10.60
2019-05-22T12:47:33.862Z,9.33
2019-05-22T12:50:02.995Z,6.55
2019-05-22T12:52:32.021Z,9.58
2019-05-22T12:55:00.733Z,7.87
2019-05-22T12:57:29.071Z,8.70
2019-05-22T13:00:02.092Z,9.03
2019-05-22T13:02:27.730Z,12.70
2019-05-22T13:04:55.973Z,8.70
2019-05-22T13:07:24.813Z,9.15
2019-05-22T13:09:53.054Z,9.68
2019-05-22T13:12:21.314Z,9.98
2019-05-22T13:14:49.633Z,8.58
2019-05-22T13:17:19.825Z,9.93
2019-05-22T13:19:48.742Z,10.72
2019-05-22T13:22:16.992Z,9.98
2019-05-22T13:24:45.314Z,8.75
2019-05-22T13:27:17.312Z,10.13
2019-05-22T13:29:46.025Z,8.45
2019-05-22T13:32:14.342Z,7.85
2019-05-22T13:34:42.602Z,8.55
2019-05-22T13:37:11.118Z,7.72
2019-05-22T13:39:39.739Z,7.80
2019-05-22T13:42:07.985Z,10.82
2019-05-22T13:44:36.233Z,8.83
2019-05-22T13:47:06.121Z,11.25
2019-05-22T13:49:35.445Z,10.63
2019-05-22T13:52:03.697Z,10.68
2019-05-22T13:54:32.294Z,10.30
2019-05-22T13:57:00.911Z,12.68
2019-05-22T13:59:29.640Z,7.20
2019-05-22T14:01:58.254Z,11.43
2019-05-22T14:04:26.534Z,10.00
2019-05-22T14:06:54.855Z,11.38
2019-05-22T14:09:23.177Z,10.55
2019-05-22T14:11:51.665Z,11.12
2019-05-22T14:14:19.925Z,6.72
2019-05-22T14:16:49.461Z,9.60
2019-05-22T14:19:18.014Z,11.10
2019-05-22T14:21:51.361Z,8.38
2019-05-22T14:24:16.345Z,12.00
2019-05-22T14:26:44.861Z,7.87
2019-05-22T14:29:13.116Z,10.20
2019-05-22T14:31:41.357Z,11.00
2019-05-22T14:34:09.686Z,11.90
2019-05-22T14:36:37.938Z,11.70
2019-05-22T14:39:06.761Z,10.60
2019-05-22T14:41:35.018Z,13.00
2019-05-22T14:44:03.352Z,11.38
2019-05-22T14:46:31.630Z,13.85
2019-05-22T14:48:59.943Z,13.88
2019-05-22T14:51:28.865Z,13.35
2019-05-22T14:53:57.402Z,12.98
2019-05-22T14:56:26.290Z,12.37
2019-05-22T14:58:54.639Z,10.55
2019-05-22T15:01:23.948Z,12.40
2019-05-22T15:03:52.313Z,10.95
2019-05-22T15:06:20.693Z,8.95
2019-05-22T15:08:49.001Z,8.85
2019-05-22T15:11:17.445Z,8.45
2019-05-22T15:13:46.073Z,8.88
2019-05-22T15:16:14.342Z,9.15
2019-05-22T15:18:42.671Z,11.30
2019-05-22T15:21:11.591Z,11.22
2019-05-22T15:23:40.317Z,10.85
2019-05-22T15:26:08.716Z,10.18
2019-05-22T15:28:36.987Z,9.18
2019-05-22T15:31:05.302Z,11.35
2019-05-22T15:33:35.076Z,7.78
2019-05-22T15:36:06.917Z,8.70
2019-05-22T15:38:36.741Z,12.93
2019-05-22T15:41:05.045Z,8.20
2019-05-22T15:43:33.435Z,9.20
2019-05-22T15:46:02.093Z,12.50
2019-05-22T15:48:31.396Z,9.88
2019-05-22T15:51:02.607Z,10.82
2019-05-22T15:53:31.904Z,6.80
2019-05-22T15:56:04.214Z,7.28
2019-05-22T15:58:33.874Z,16.75
2019-05-22T16:01:04.727Z,9.90
2019-05-22T16:03:33.061Z,8.98
2019-05-22T16:06:01.298Z,7.95
2019-05-22T16:08:30.126Z,8.83
2019-05-22T16:11:00.299Z,11.30
2019-05-22T16:13:31.774Z,10.70
2019-05-22T16:16:01.061Z,8.40
2019-05-22T16:18:29.463Z,7.10
2019-05-22T16:20:59.259Z,11.55
2019-05-22T16:23:29.553Z,7.80
2019-05-22T16:25:57.984Z,6.90
2019-05-22T16:28:30.599Z,7.25
2019-05-22T16:30:57.196Z,7.67
2019-05-22T16:33:26.229Z,7.78
2019-05-22T16:35:54.489Z,8.43
2019-05-22T16:38:23.789Z,5.87
2019-05-22T16:40:52.114Z,10.53
2019-05-22T16:43:20.423Z,16.35
2019-05-22T16:45:49.941Z,9.78
2019-05-22T16:48:28.462Z,9.20
2019-05-22T16:50:48.551Z,12.68
2019-05-22T16:53:17.863Z,9.05
2019-05-22T16:55:46.786Z,9.23
2019-05-22T16:58:36.338Z,10.55
2019-05-22T17:01:04.596Z,9.63
2019-05-22T17:03:32.914Z,8.95
2019-05-22T17:06:01.159Z,8.25
2019-05-22T17:08:29.591Z,10.98
2019-05-22T17:10:58.590Z,9.15
2019-05-22T17:13:29.448Z,11.30
2019-05-22T17:15:58.334Z,6.28
2019-05-22T17:18:28.018Z,6.97
2019-05-22T17:20:58.282Z,8.15
2019-05-22T17:23:27.788Z,8.50
2019-05-22T17:25:58.119Z,9.25
2019-05-22T17:28:27.163Z,8.18
2019-05-22T17:30:56.053Z,7.33
2019-05-22T17:33:24.496Z,7.67
2019-05-22T17:35:52.781Z,11.48
2019-05-22T17:38:23.011Z,7.03
2019-05-22T17:40:52.052Z,7.50
2019-05-22T17:43:20.326Z,7.12
2019-05-22T17:45:49.049Z,7.22
2019-05-22T17:48:18.687Z,11.33
2019-05-22T17:50:47.418Z,8.40
2019-05-22T17:53:16.137Z,11.57
2019-05-22T17:55:44.439Z,13.93
2019-05-22T17:58:12.784Z,7.15
2019-05-22T18:00:42.800Z,8.20
2019-05-22T18:03:11.089Z,9.53
2019-05-22T18:05:39.793Z,8.08
2019-05-22T18:08:08.191Z,9.75
2019-05-22T18:10:40.394Z,10.45
2019-05-22T18:13:09.203Z,9.85
2019-05-22T18:15:37.475Z,8.33
2019-05-22T18:18:07.181Z,7.12
2019-05-22T18:20:42.921Z,7.95
2019-05-22T18:23:06.325Z,8.73
2019-05-22T18:25:35.040Z,10.72
2019-05-22T18:28:04.377Z,13.05
2019-05-22T18:30:34.631Z,8.45
2019-05-22T18:33:02.945Z,7.55
2019-05-22T18:35:31.201Z,14.83
2019-05-22T18:37:59.606Z,9.03
2019-05-22T18:40:28.011Z,9.58
2019-05-22T18:42:56.254Z,9.93
2019-05-22T18:45:25.502Z,8.90
2019-05-22T18:47:54.328Z,9.38
2019-05-22T18:50:22.601Z,9.45
2019-05-22T18:52:51.238Z,9.70
2019-05-22T18:55:19.557Z,8.63
2019-05-22T18:57:47.900Z,8.70
2019-05-22T19:00:19.447Z,10.95
2019-05-22T19:02:48.191Z,8.68
2019-05-22T19:05:18.592Z,10.72
2019-05-22T19:07:46.864Z,8.78
2019-05-22T19:10:15.168Z,7.80
2019-05-22T19:12:43.805Z,12.23
2019-05-22T19:15:12.226Z,9.03
2019-05-22T19:17:40.499Z,8.80
2019-05-22T19:20:08.744Z,11.20
2019-05-22T19:22:37.967Z,10.18
2019-05-22T19:25:06.291Z,11.78
2019-05-22T19:27:34.806Z,8.85
2019-05-22T19:30:03.401Z,11.18
2019-05-22T19:32:32.035Z,10.60
2019-05-22T19:35:00.290Z,13.20
2019-05-22T19:37:28.542Z,13.65
2019-05-22T19:39:56.794Z,10.45
2019-05-22T19:42:25.293Z,10.75
2019-05-22T19:44:53.613Z,13.55
2019-05-22T19:47:22.794Z,17.45
2019-05-22T19:49:52.677Z,14.10
2019-05-22T19:52:39.028Z,17.07
2019-05-22T19:54:53.405Z,14.95
2019-05-22T19:57:23.868Z,12.85
2019-05-22T19:59:52.116Z,11.38
2019-05-22T20:02:20.847Z,11.08
2019-05-22T20:04:49.089Z,15.05
2019-05-22T20:07:17.724Z,13.15
2019-05-22T20:09:46.339Z,16.07
2019-05-22T20:12:16.619Z,12.68
2019-05-22T20:14:44.866Z,16.20
2019-05-22T20:17:13.604Z,15.93
2019-05-22T20:19:42.599Z,16.67
2019-05-22T20:22:11.001Z,15.80
2019-05-22T20:24:39.609Z,14.35
2019-05-22T20:27:09.745Z,17.48
2019-05-22T20:29:38.361Z,12.60
2019-05-22T20:32:07.829Z,17.05
2019-05-22T20:34:36.077Z,14.25
2019-05-22T20:37:04.900Z,12.70
2019-05-22T20:39:33.150Z,14.18
2019-05-22T20:42:01.678Z,14.10
2019-05-22T20:44:30.193Z,12.90
2019-05-22T20:46:58.722Z,12.98
2019-05-22T20:49:26.977Z,10.30
2019-05-22T20:51:55.240Z,12.82
2019-05-22T20:54:24.456Z,14.35
2019-05-22T20:56:55.056Z,13.30
2019-05-22T20:59:24.290Z,13.65
2019-05-22T21:01:53.301Z,12.55
2019-05-22T21:04:22.628Z,14.73
2019-05-22T21:06:53.670Z,14.53
2019-05-22T21:09:22.101Z,21.42
2019-05-22T21:11:50.365Z,19.60
2019-05-22T21:14:18.697Z,17.82
2019-05-22T21:16:47.924Z,17.12
2019-05-22T21:19:16.191Z,17.87
2019-05-22T21:21:44.695Z,13.85
2019-05-22T21:24:13.621Z,14.60
2019-05-22T21:26:42.610Z,16.45
2019-05-22T21:29:11.314Z,14.40
2019-05-22T21:31:39.944Z,18.30
2019-05-22T21:34:08.667Z,19.87
2019-05-22T21:36:36.986Z,12.68
2019-05-22T21:39:08.458Z,16.73
2019-05-22T21:41:36.785Z,16.30
2019-05-22T21:44:05.218Z,13.28
2019-05-22T21:46:33.842Z,13.15
2019-05-22T21:49:03.750Z,15.70
2019-05-22T21:51:32.557Z,22.20
2019-05-22T21:54:01.190Z,16.37
2019-05-22T21:56:29.906Z,16.32
2019-05-22T21:58:58.176Z,16.25
2019-05-22T22:01:28.129Z,17.73
2019-05-22T22:04:01.196Z,16.65
2019-05-22T22:06:33.035Z,15.60
2019-05-22T22:09:00.068Z,30.52
2019-05-22T22:11:28.327Z,16.93
2019-05-22T22:13:57.821Z,16.73
2019-05-22T22:16:27.037Z,17.40
2019-05-22T22:18:56.031Z,22.42
2019-05-22T22:21:24.724Z,19.30
2019-05-22T22:23:53.344Z,23.50
2019-05-22T22:26:26.163Z,26.33
2019-05-22T22:28:52.080Z,20.90
2019-05-22T22:31:21.958Z,17.90
2019-05-22T22:33:53.981Z,21.35
2019-05-22T22:36:22.227Z,19.42
2019-05-22T22:38:51.655Z,20.30
2019-05-22T22:41:19.971Z,21.77
2019-05-22T22:43:49.121Z,17.20
2019-05-22T22:46:27.584Z,18.82
2019-05-22T22:48:57.785Z,19.10
2019-05-22T22:51:26.032Z,17.80
2019-05-22T22:53:56.429Z,21.57
2019-05-22T22:56:25.325Z,16.60
2019-05-22T22:58:53.745Z,16.57
2019-05-22T23:01:27.691Z,17.20
2019-05-22T23:03:56.716Z,19.62
2019-05-22T23:06:25.931Z,18.48
2019-05-22T23:08:54.261Z,17.45
2019-05-22T23:11:22.580Z,22.20
2019-05-22T23:13:50.912Z,18.35
2019-05-22T23:16:21.009Z,19.30
2019-05-22T23:19:11.245Z,20.50
2019-05-22T23:21:40.167Z,20.62
2019-05-22T23:24:09.193Z,20.32
2019-05-22T23:26:38.515Z,16.35
2019-05-22T23:29:08.412Z,19.17
2019-05-22T23:31:38.337Z,21.05
2019-05-22T23:34:06.865Z,19.92
2019-05-22T23:36:35.383Z,23.92
2019-05-22T23:39:07.165Z,16.85
2019-05-22T23:41:37.047Z,68.47
2019-05-22T23:44:06.041Z,15.95
2019-05-22T23:46:35.356Z,18.05
2019-05-22T23:49:03.990Z,13.48
2019-05-22T23:51:32.234Z,18.52
2019-05-22T23:54:01.977Z,15.65
2019-05-22T23:56:30.683Z,12.85
2019-05-22T23:58:59.011Z,17.10
